sensor_id;sensor_type;location;lat;lon;timestamp;pressure;altitude;pressure_sealevel;temperature;humidity
11672;BME280;5892;43.412;24.612;2023-03-25T00:01:13;99535.94;;;9.72;93.14
11672;BME280;5892;43.412;24.612;2023-03-25T00:03:42;99527.06;;;9.75;93.32
11672;BME280;5892;43.412;24.612;2023-03-25T00:06:12;99531.41;;;9.59;93.48
11672;BME280;5892;43.412;24.612;2023-03-25T00:08:39;99531.75;;;9.49;93.79
11672;BME280;5892;43.412;24.612;2023-03-25T00:11:06;99452.13;;;8.90;94.38
11672;BME280;5892;43.412;24.612;2023-03-25T00:13:34;99429.94;;;8.75;94.63
11672;BME280;5892;43.412;24.612;2023-03-25T00:16:04;99532.06;;;9.39;94.92
11672;BME280;5892;43.412;24.612;2023-03-25T00:18:31;99521.78;;;9.45;94.49
11672;BME280;5892;43.412;24.612;2023-03-25T00:21:00;99517.25;;;9.49;94.74
11672;BME280;5892;43.412;24.612;2023-03-25T00:23:28;99512.75;;;9.44;94.85
11672;BME280;5892;43.412;24.612;2023-03-25T00:25:56;99518.56;;;9.43;95.39
11672;BME280;5892;43.412;24.612;2023-03-25T00:28:25;99497.19;;;9.36;94.85
11672;BME280;5892;43.412;24.612;2023-03-25T00:30:57;99513.44;;;9.41;94.88
11672;BME280;5892;43.412;24.612;2023-03-25T00:33:26;99512.94;;;9.39;95.34
11672;BME280;5892;43.412;24.612;2023-03-25T00:35:53;99500.56;;;9.42;94.60
11672;BME280;5892;43.412;24.612;2023-03-25T00:38:24;99497.81;;;9.33;95.39
11672;BME280;5892;43.412;24.612;2023-03-25T00:41:07;99502.81;;;9.40;95.62
11672;BME280;5892;43.412;24.612;2023-03-25T00:43:34;99507.13;;;9.32;95.53
11672;BME280;5892;43.412;24.612;2023-03-25T00:46:01;99504.09;;;9.25;96.27
11672;BME280;5892;43.412;24.612;2023-03-25T00:48:31;99505.72;;;9.26;95.96
11672;BME280;5892;43.412;24.612;2023-03-25T00:50:58;99496.06;;;9.20;96.47
11672;BME280;5892;43.412;24.612;2023-03-25T00:53:31;99466.47;;;9.05;96.36
11672;BME280;5892;43.412;24.612;2023-03-25T00:55:59;99492.50;;;9.28;96.28
11672;BME280;5892;43.412;24.612;2023-03-25T00:58:27;99492.03;;;9.26;96.59
11672;BME280;5892;43.412;24.612;2023-03-25T01:00:54;99482.53;;;9.06;97.56
11672;BME280;5892;43.412;24.612;2023-03-25T01:03:22;99486.69;;;8.95;98.01
11672;BME280;5892;43.412;24.612;2023-03-25T01:05:52;99483.94;;;8.86;98.81
11672;BME280;5892;43.412;24.612;2023-03-25T01:08:20;99478.34;;;8.91;98.57
11672;BME280;5892;43.412;24.612;2023-03-25T01:10:51;99470.28;;;8.78;99.54
11672;BME280;5892;43.412;24.612;2023-03-25T01:13:18;99471.41;;;8.77;99.53
11672;BME280;5892;43.412;24.612;2023-03-25T01:15:45;99463.38;;;8.72;99.55
11672;BME280;5892;43.412;24.612;2023-03-25T01:18:13;99464.31;;;8.76;99.34
11672;BME280;5892;43.412;24.612;2023-03-25T01:20:40;99434.09;;;8.64;98.97
11672;BME280;5892;43.412;24.612;2023-03-25T01:23:08;99466.91;;;8.81;98.81
11672;BME280;5892;43.412;24.612;2023-03-25T01:25:36;99474.44;;;8.75;98.83
11672;BME280;5892;43.412;24.612;2023-03-25T01:28:04;99443.44;;;8.63;99.14
11672;BME280;5892;43.412;24.612;2023-03-25T01:30:31;99467.56;;;8.86;98.67
11672;BME280;5892;43.412;24.612;2023-03-25T01:32:58;99434.44;;;8.71;98.50
11672;BME280;5892;43.412;24.612;2023-03-25T01:35:25;99456.78;;;8.81;98.67
11672;BME280;5892;43.412;24.612;2023-03-25T01:37:52;99432.47;;;8.54;99.35
11672;BME280;5892;43.412;24.612;2023-03-25T01:40:22;99430.84;;;8.44;100.00
11672;BME280;5892;43.412;24.612;2023-03-25T01:42:49;99383.53;;;8.18;100.00
11672;BME280;5892;43.412;24.612;2023-03-25T01:45:24;99436.81;;;8.55;99.86
11672;BME280;5892;43.412;24.612;2023-03-25T01:47:56;99427.50;;;8.56;99.25
11672;BME280;5892;43.412;24.612;2023-03-25T01:50:26;99403.38;;;8.41;99.85
11672;BME280;5892;43.412;24.612;2023-03-25T01:52:56;99372.94;;;8.17;99.99
11672;BME280;5892;43.412;24.612;2023-03-25T01:55:26;99367.91;;;8.01;100.00
11672;BME280;5892;43.412;24.612;2023-03-25T01:57:56;99405.59;;;8.30;100.00
11672;BME280;5892;43.412;24.612;2023-03-25T02:00:24;99428.78;;;8.50;100.00
11672;BME280;5892;43.412;24.612;2023-03-25T02:02:53;99426.03;;;8.50;100.00
11672;BME280;5892;43.412;24.612;2023-03-25T02:05:31;99368.41;;;8.03;100.00
11672;BME280;5892;43.412;24.612;2023-03-25T02:08:01;99413.34;;;8.45;100.00
11672;BME280;5892;43.412;24.612;2023-03-25T02:10:31;99392.47;;;8.41;100.00
11672;BME280;5892;43.412;24.612;2023-03-25T02:13:00;99406.28;;;8.36;100.00
11672;BME280;5892;43.412;24.612;2023-03-25T02:15:31;99405.31;;;8.32;100.00
11672;BME280;5892;43.412;24.612;2023-03-25T02:18:15;99409.25;;;8.26;100.00
11672;BME280;5892;43.412;24.612;2023-03-25T02:27:08;99384.81;;;8.12;100.00
11672;BME280;5892;43.412;24.612;2023-03-25T02:29:55;99401.69;;;8.23;100.00
11672;BME280;5892;43.412;24.612;2023-03-25T02:32:36;99399.84;;;8.32;100.00
11672;BME280;5892;43.412;24.612;2023-03-25T02:35:35;99421.03;;;8.43;100.00
11672;BME280;5892;43.412;24.612;2023-03-25T02:38:16;99414.88;;;8.29;100.00
11672;BME280;5892;43.412;24.612;2023-03-25T02:40:50;99353.47;;;7.92;100.00
11672;BME280;5892;43.412;24.612;2023-03-25T02:43:24;99412.16;;;8.29;100.00
11672;BME280;5892;43.412;24.612;2023-03-25T02:45:57;99401.75;;;8.31;100.00
11672;BME280;5892;43.412;24.612;2023-03-25T02:48:28;99400.97;;;8.31;100.00
11672;BME280;5892;43.412;24.612;2023-03-25T02:51:01;99394.91;;;8.12;100.00
11672;BME280;5892;43.412;24.612;2023-03-25T02:53:34;99384.78;;;8.03;100.00
11672;BME280;5892;43.412;24.612;2023-03-25T02:56:05;99393.34;;;8.19;100.00
11672;BME280;5892;43.412;24.612;2023-03-25T02:58:35;99396.06;;;8.19;100.00
11672;BME280;5892;43.412;24.612;2023-03-25T03:01:04;99397.34;;;8.13;100.00
11672;BME280;5892;43.412;24.612;2023-03-25T03:03:31;99384.16;;;8.06;100.00
11672;BME280;5892;43.412;24.612;2023-03-25T03:06:00;99402.78;;;8.04;100.00
11672;BME280;5892;43.412;24.612;2023-03-25T03:08:59;99398.69;;;7.85;100.00
11672;BME280;5892;43.412;24.612;2023-03-25T03:11:34;99383.09;;;7.85;100.00
11672;BME280;5892;43.412;24.612;2023-03-25T03:14:16;99399.69;;;7.97;100.00
11672;BME280;5892;43.412;24.612;2023-03-25T03:16:53;99386.31;;;7.87;100.00
11672;BME280;5892;43.412;24.612;2023-03-25T03:19:32;99402.72;;;7.96;100.00
11672;BME280;5892;43.412;24.612;2023-03-25T03:22:14;99401.00;;;8.08;100.00
11672;BME280;5892;43.412;24.612;2023-03-25T03:24:50;99401.81;;;8.00;100.00
11672;BME280;5892;43.412;24.612;2023-03-25T03:27:22;99391.50;;;7.97;100.00
11672;BME280;5892;43.412;24.612;2023-03-25T03:29:56;99380.50;;;7.72;100.00
11672;BME280;5892;43.412;24.612;2023-03-25T03:32:31;99406.59;;;7.95;100.00
11672;BME280;5892;43.412;24.612;2023-03-25T03:35:05;99374.59;;;7.78;100.00
11672;BME280;5892;43.412;24.612;2023-03-25T03:37:38;99407.56;;;7.99;100.00
11672;BME280;5892;43.412;24.612;2023-03-25T03:40:12;99407.56;;;7.99;100.00
11672;BME280;5892;43.412;24.612;2023-03-25T03:42:43;99378.44;;;7.77;100.00
11672;BME280;5892;43.412;24.612;2023-03-25T03:45:18;99381.47;;;7.76;100.00
11672;BME280;5892;43.412;24.612;2023-03-25T03:47:51;99369.34;;;7.59;100.00
11672;BME280;5892;43.412;24.612;2023-03-25T03:50:23;99378.69;;;7.67;100.00
11672;BME280;5892;43.412;24.612;2023-03-25T03:52:54;99414.09;;;7.89;100.00
11672;BME280;5892;43.412;24.612;2023-03-25T03:55:33;99412.56;;;7.75;100.00
11672;BME280;5892;43.412;24.612;2023-03-25T03:58:10;99411.78;;;7.74;100.00
11672;BME280;5892;43.412;24.612;2023-03-25T04:00:43;99419.19;;;7.82;100.00
11672;BME280;5892;43.412;24.612;2023-03-25T04:03:17;99412.13;;;7.81;100.00
11672;BME280;5892;43.412;24.612;2023-03-25T04:05:53;99414.03;;;7.81;100.00
11672;BME280;5892;43.412;24.612;2023-03-25T04:08:26;99376.72;;;7.59;100.00
11672;BME280;5892;43.412;24.612;2023-03-25T04:10:59;99410.34;;;7.77;100.00
11672;BME280;5892;43.412;24.612;2023-03-25T04:13:32;99419.03;;;7.79;100.00
11672;BME280;5892;43.412;24.612;2023-03-25T04:16:00;99422.09;;;7.55;100.00
11672;BME280;5892;43.412;24.612;2023-03-25T04:18:28;99437.50;;;7.59;100.00
11672;BME280;5892;43.412;24.612;2023-03-25T04:20:58;99433.06;;;7.63;100.00
11672;BME280;5892;43.412;24.612;2023-03-25T04:23:25;99428.41;;;7.64;100.00
11672;BME280;5892;43.412;24.612;2023-03-25T04:25:56;99409.09;;;7.52;100.00
11672;BME280;5892;43.412;24.612;2023-03-25T04:28:27;99408.78;;;7.53;100.00
11672;BME280;5892;43.412;24.612;2023-03-25T04:30:53;99444.38;;;7.79;100.00
11672;BME280;5892;43.412;24.612;2023-03-25T04:33:22;99452.28;;;7.89;100.00
11672;BME280;5892;43.412;24.612;2023-03-25T04:35:49;99446.28;;;8.09;100.00
11672;BME280;5892;43.412;24.612;2023-03-25T04:38:16;99442.47;;;8.28;100.00
11672;BME280;5892;43.412;24.612;2023-03-25T04:40:43;99443.22;;;8.42;100.00
11672;BME280;5892;43.412;24.612;2023-03-25T04:43:14;99370.69;;;8.10;100.00
11672;BME280;5892;43.412;24.612;2023-03-25T04:45:41;99371.34;;;8.16;100.00
11672;BME280;5892;43.412;24.612;2023-03-25T04:48:20;99458.25;;;8.87;100.00
11672;BME280;5892;43.412;24.612;2023-03-25T04:50:48;99462.94;;;9.04;97.84
11672;BME280;5892;43.412;24.612;2023-03-25T04:53:16;99460.50;;;9.20;97.04
11672;BME280;5892;43.412;24.612;2023-03-25T04:55:44;99457.13;;;9.40;95.32
11672;BME280;5892;43.412;24.612;2023-03-25T04:58:14;99470.13;;;9.60;94.26
11672;BME280;5892;43.412;24.612;2023-03-25T05:00:41;99463.50;;;9.78;92.01
11672;BME280;5892;43.412;24.612;2023-03-25T05:03:10;99447.19;;;9.99;89.81
11672;BME280;5892;43.412;24.612;2023-03-25T05:05:37;99467.22;;;10.29;88.53
11672;BME280;5892;43.412;24.612;2023-03-25T05:08:04;99469.69;;;10.51;86.85
11672;BME280;5892;43.412;24.612;2023-03-25T05:10:32;99468.91;;;10.51;85.96
11672;BME280;5892;43.412;24.612;2023-03-25T05:13:01;99468.34;;;10.57;84.81
11672;BME280;5892;43.412;24.612;2023-03-25T05:15:32;99479.72;;;10.77;84.18
11672;BME280;5892;43.412;24.612;2023-03-25T05:18:04;99485.03;;;11.02;83.27
11672;BME280;5892;43.412;24.612;2023-03-25T05:20:31;99476.47;;;11.25;81.26
11672;BME280;5892;43.412;24.612;2023-03-25T05:22:59;99487.38;;;11.33;79.88
11672;BME280;5892;43.412;24.612;2023-03-25T05:25:29;99485.00;;;11.44;79.95
11672;BME280;5892;43.412;24.612;2023-03-25T05:27:58;99489.00;;;11.46;79.52
11672;BME280;5892;43.412;24.612;2023-03-25T05:30:27;99483.25;;;11.60;78.39
11672;BME280;5892;43.412;24.612;2023-03-25T05:32:58;99480.41;;;11.89;76.93
11672;BME280;5892;43.412;24.612;2023-03-25T05:35:27;99485.13;;;12.01;75.93
11672;BME280;5892;43.412;24.612;2023-03-25T05:37:54;99479.19;;;12.11;75.72
11672;BME280;5892;43.412;24.612;2023-03-25T05:40:22;99481.53;;;12.34;75.34
11672;BME280;5892;43.412;24.612;2023-03-25T05:42:49;99455.53;;;12.31;74.73
11672;BME280;5892;43.412;24.612;2023-03-25T05:45:19;99490.00;;;12.65;73.92
11672;BME280;5892;43.412;24.612;2023-03-25T05:47:46;99499.63;;;12.71;73.46
11672;BME280;5892;43.412;24.612;2023-03-25T05:50:15;99487.03;;;12.82;73.11
11672;BME280;5892;43.412;24.612;2023-03-25T05:52:42;99481.50;;;12.94;72.02
11672;BME280;5892;43.412;24.612;2023-03-25T05:55:11;99487.41;;;13.08;71.70
11672;BME280;5892;43.412;24.612;2023-03-25T05:57:40;99498.00;;;13.19;71.03
11672;BME280;5892;43.412;24.612;2023-03-25T06:00:09;99492.22;;;13.36;70.71
11672;BME280;5892;43.412;24.612;2023-03-25T06:02:37;99497.34;;;13.49;70.12
11672;BME280;5892;43.412;24.612;2023-03-25T06:05:05;99436.78;;;13.22;69.52
11672;BME280;5892;43.412;24.612;2023-03-25T06:07:36;99493.16;;;13.83;68.53
11672;BME280;5892;43.412;24.612;2023-03-25T06:10:04;99493.91;;;13.96;67.52
11672;BME280;5892;43.412;24.612;2023-03-25T06:12:31;99475.81;;;14.11;67.27
11672;BME280;5892;43.412;24.612;2023-03-25T06:15:03;99490.44;;;14.43;66.62
11672;BME280;5892;43.412;24.612;2023-03-25T06:17:30;99441.41;;;14.20;66.23
11672;BME280;5892;43.412;24.612;2023-03-25T06:19:59;99473.16;;;14.46;65.96
11672;BME280;5892;43.412;24.612;2023-03-25T06:22:37;99483.75;;;14.59;65.64
11672;BME280;5892;43.412;24.612;2023-03-25T06:25:05;99488.72;;;14.85;65.58
11672;BME280;5892;43.412;24.612;2023-03-25T06:27:32;99486.44;;;15.06;64.35
11672;BME280;5892;43.412;24.612;2023-03-25T06:30:06;99490.72;;;15.23;64.78
11672;BME280;5892;43.412;24.612;2023-03-25T06:32:33;99468.81;;;15.30;64.12
11672;BME280;5892;43.412;24.612;2023-03-25T06:35:00;99493.31;;;15.51;63.50
11672;BME280;5892;43.412;24.612;2023-03-25T06:37:27;99452.25;;;15.49;63.43
11672;BME280;5892;43.412;24.612;2023-03-25T06:39:55;99486.84;;;16.01;62.52
11672;BME280;5892;43.412;24.612;2023-03-25T06:42:24;99494.13;;;16.13;61.54
11672;BME280;5892;43.412;24.612;2023-03-25T06:44:51;99501.91;;;16.26;61.34
11672;BME280;5892;43.412;24.612;2023-03-25T06:47:18;99495.44;;;15.96;61.08
11672;BME280;5892;43.412;24.612;2023-03-25T06:49:45;99502.22;;;16.21;61.20
11672;BME280;5892;43.412;24.612;2023-03-25T06:52:13;99498.09;;;16.12;60.48
11672;BME280;5892;43.412;24.612;2023-03-25T06:54:40;99497.53;;;16.25;60.06
11672;BME280;5892;43.412;24.612;2023-03-25T06:57:08;99502.47;;;15.93;60.91
11672;BME280;5892;43.412;24.612;2023-03-25T06:59:35;99509.91;;;16.12;61.09
11672;BME280;5892;43.412;24.612;2023-03-25T07:02:02;99514.47;;;16.01;60.98
11672;BME280;5892;43.412;24.612;2023-03-25T07:04:29;99525.59;;;16.04;61.79
11672;BME280;5892;43.412;24.612;2023-03-25T07:06:56;99542.31;;;16.12;61.55
11672;BME280;5892;43.412;24.612;2023-03-25T07:09:23;99515.78;;;16.30;61.33
11672;BME280;5892;43.412;24.612;2023-03-25T07:11:50;99522.13;;;16.30;61.39
11672;BME280;5892;43.412;24.612;2023-03-25T07:14:18;99522.06;;;16.49;60.83
11672;BME280;5892;43.412;24.612;2023-03-25T07:16:47;99507.44;;;16.72;60.57
11672;BME280;5892;43.412;24.612;2023-03-25T07:19:14;99506.09;;;17.11;59.74
11672;BME280;5892;43.412;24.612;2023-03-25T07:21:41;99513.72;;;17.48;58.51
11672;BME280;5892;43.412;24.612;2023-03-25T07:24:15;99514.13;;;17.50;56.66
11672;BME280;5892;43.412;24.612;2023-03-25T07:26:42;99514.31;;;17.64;55.50
11672;BME280;5892;43.412;24.612;2023-03-25T07:29:11;99495.63;;;17.57;56.44
11672;BME280;5892;43.412;24.612;2023-03-25T07:31:39;99499.91;;;17.81;54.95
11672;BME280;5892;43.412;24.612;2023-03-25T07:34:06;99482.34;;;18.07;54.10
11672;BME280;5892;43.412;24.612;2023-03-25T07:36:33;99507.66;;;18.42;53.62
11672;BME280;5892;43.412;24.612;2023-03-25T07:42:07;99513.59;;;18.85;51.92
11672;BME280;5892;43.412;24.612;2023-03-25T07:44:34;99508.84;;;18.85;51.98
11672;BME280;5892;43.412;24.612;2023-03-25T07:47:03;99495.47;;;18.98;51.77
11672;BME280;5892;43.412;24.612;2023-03-25T07:49:30;99495.56;;;19.16;51.18
11672;BME280;5892;43.412;24.612;2023-03-25T07:51:59;99496.41;;;19.23;51.01
11672;BME280;5892;43.412;24.612;2023-03-25T07:54:26;99503.50;;;19.17;51.00
11672;BME280;5892;43.412;24.612;2023-03-25T07:56:52;99466.59;;;19.10;51.33
11672;BME280;5892;43.412;24.612;2023-03-25T07:59:20;99448.81;;;19.25;50.51
11672;BME280;5892;43.412;24.612;2023-03-25T08:01:48;99507.72;;;19.55;50.62
11672;BME280;5892;43.412;24.612;2023-03-25T08:04:16;99494.69;;;19.73;50.70
11672;BME280;5892;43.412;24.612;2023-03-25T08:06:43;99494.38;;;19.96;49.94
11672;BME280;5892;43.412;24.612;2023-03-25T08:09:10;99491.25;;;20.22;49.48
11672;BME280;5892;43.412;24.612;2023-03-25T08:11:38;99437.19;;;19.99;47.38
11672;BME280;5892;43.412;24.612;2023-03-25T08:14:07;99485.38;;;20.56;47.25
11672;BME280;5892;43.412;24.612;2023-03-25T08:16:34;99447.56;;;20.48;45.15
11672;BME280;5892;43.412;24.612;2023-03-25T08:19:01;99494.50;;;20.81;43.94
11672;BME280;5892;43.412;24.612;2023-03-25T08:21:29;99492.94;;;20.66;43.74
11672;BME280;5892;43.412;24.612;2023-03-25T08:23:57;99500.09;;;20.56;44.80
11672;BME280;5892;43.412;24.612;2023-03-25T08:26:27;99492.84;;;20.27;45.36
11672;BME280;5892;43.412;24.612;2023-03-25T08:31:49;99495.91;;;19.72;47.58
11672;BME280;5892;43.412;24.612;2023-03-25T08:34:18;99485.16;;;19.74;48.82
11672;BME280;5892;43.412;24.612;2023-03-25T08:36:52;99489.59;;;19.86;48.31
11672;BME280;5892;43.412;24.612;2023-03-25T08:39:19;99495.13;;;19.89;47.85
11672;BME280;5892;43.412;24.612;2023-03-25T08:41:53;99458.53;;;19.70;48.35
11672;BME280;5892;43.412;24.612;2023-03-25T08:44:21;99495.56;;;19.92;49.06
11672;BME280;5892;43.412;24.612;2023-03-25T08:46:50;99418.38;;;19.46;49.75
11672;BME280;5892;43.412;24.612;2023-03-25T08:49:18;99491.22;;;20.05;49.40
11672;BME280;5892;43.412;24.612;2023-03-25T08:51:47;99498.38;;;19.99;49.80
11672;BME280;5892;43.412;24.612;2023-03-25T08:54:14;99498.75;;;19.94;50.25
11672;BME280;5892;43.412;24.612;2023-03-25T08:56:41;99507.09;;;20.01;50.37
11672;BME280;5892;43.412;24.612;2023-03-25T08:59:08;99489.63;;;20.11;50.49
11672;BME280;5892;43.412;24.612;2023-03-25T09:01:35;99432.81;;;20.12;49.58
11672;BME280;5892;43.412;24.612;2023-03-25T09:04:03;99440.38;;;20.25;49.31
11672;BME280;5892;43.412;24.612;2023-03-25T09:06:30;99486.53;;;20.34;49.26
11672;BME280;5892;43.412;24.612;2023-03-25T09:08:59;99463.00;;;20.03;48.55
11672;BME280;5892;43.412;24.612;2023-03-25T09:11:26;99490.06;;;20.27;48.13
11672;BME280;5892;43.412;24.612;2023-03-25T09:13:53;99439.97;;;19.99;48.14
11672;BME280;5892;43.412;24.612;2023-03-25T09:16:20;99491.31;;;20.40;48.93
11672;BME280;5892;43.412;24.612;2023-03-25T09:18:47;99429.22;;;19.97;48.72
11672;BME280;5892;43.412;24.612;2023-03-25T09:21:14;99424.47;;;20.05;47.77
11672;BME280;5892;43.412;24.612;2023-03-25T09:23:41;99471.84;;;20.54;48.43
11672;BME280;5892;43.412;24.612;2023-03-25T09:26:10;99454.75;;;20.49;47.66
11672;BME280;5892;43.412;24.612;2023-03-25T09:28:38;99474.22;;;20.66;47.64
11672;BME280;5892;43.412;24.612;2023-03-25T09:31:06;99475.81;;;20.53;47.08
11672;BME280;5892;43.412;24.612;2023-03-25T09:33:34;99452.38;;;20.61;47.18
11672;BME280;5892;43.412;24.612;2023-03-25T09:36:04;99470.63;;;20.87;46.56
11672;BME280;5892;43.412;24.612;2023-03-25T09:38:32;99449.94;;;20.85;46.68
11672;BME280;5892;43.412;24.612;2023-03-25T09:41:02;99451.53;;;21.14;46.36
11672;BME280;5892;43.412;24.612;2023-03-25T09:43:37;99445.09;;;21.10;45.84
11672;BME280;5892;43.412;24.612;2023-03-25T09:46:11;99442.69;;;21.26;45.34
11672;BME280;5892;43.412;24.612;2023-03-25T09:48:39;99445.03;;;21.49;44.60
11672;BME280;5892;43.412;24.612;2023-03-25T09:51:12;99448.94;;;21.59;44.19
11672;BME280;5892;43.412;24.612;2023-03-25T09:53:44;99416.41;;;21.31;42.52
11672;BME280;5892;43.412;24.612;2023-03-25T09:56:15;99454.56;;;21.48;41.71
11672;BME280;5892;43.412;24.612;2023-03-25T09:58:46;99440.19;;;21.60;42.09
11672;BME280;5892;43.412;24.612;2023-03-25T10:01:21;99443.72;;;21.68;40.23
11672;BME280;5892;43.412;24.612;2023-03-25T10:03:58;99407.47;;;21.68;39.94
11672;BME280;5892;43.412;24.612;2023-03-25T10:06:29;99351.53;;;21.34;38.54
11672;BME280;5892;43.412;24.612;2023-03-25T10:09:11;99341.50;;;21.50;38.60
11672;BME280;5892;43.412;24.612;2023-03-25T10:11:49;99413.22;;;22.09;37.43
11672;BME280;5892;43.412;24.612;2023-03-25T10:14:26;99416.69;;;22.27;37.47
11672;BME280;5892;43.412;24.612;2023-03-25T10:17:03;99410.78;;;22.14;36.99
11672;BME280;5892;43.412;24.612;2023-03-25T10:19:50;99340.56;;;21.71;36.91
11672;BME280;5892;43.412;24.612;2023-03-25T10:22:25;99411.13;;;22.23;37.22
11672;BME280;5892;43.412;24.612;2023-03-25T10:24:55;99399.06;;;22.37;36.37
11672;BME280;5892;43.412;24.612;2023-03-25T10:27:28;99386.34;;;22.32;36.53
11672;BME280;5892;43.412;24.612;2023-03-25T10:30:06;99406.16;;;22.49;37.19
11672;BME280;5892;43.412;24.612;2023-03-25T10:32:39;99387.78;;;22.92;37.17
11672;BME280;5892;43.412;24.612;2023-03-25T10:35:10;99370.53;;;23.01;34.92
11672;BME280;5892;43.412;24.612;2023-03-25T10:37:43;99391.28;;;23.34;35.53
11672;BME280;5892;43.412;24.612;2023-03-25T10:40:15;99403.66;;;23.67;35.44
11672;BME280;5892;43.412;24.612;2023-03-25T10:42:56;99401.88;;;23.80;35.54
11672;BME280;5892;43.412;24.612;2023-03-25T10:45:27;99385.56;;;23.75;36.41
11672;BME280;5892;43.412;24.612;2023-03-25T10:48:02;99388.25;;;23.55;36.51
11672;BME280;5892;43.412;24.612;2023-03-25T10:50:30;99368.00;;;23.44;37.75
11672;BME280;5892;43.412;24.612;2023-03-25T10:52:58;99392.28;;;23.50;38.28
11672;BME280;5892;43.412;24.612;2023-03-25T10:55:28;99383.41;;;23.25;37.03
11672;BME280;5892;43.412;24.612;2023-03-25T10:57:59;99305.19;;;22.91;37.62
11672;BME280;5892;43.412;24.612;2023-03-25T11:00:28;99381.44;;;23.56;37.75
11672;BME280;5892;43.412;24.612;2023-03-25T11:02:55;99283.72;;;22.85;38.34
11672;BME280;5892;43.412;24.612;2023-03-25T11:05:26;99377.69;;;23.66;37.36
11672;BME280;5892;43.412;24.612;2023-03-25T11:07:56;99334.97;;;23.66;37.27
11672;BME280;5892;43.412;24.612;2023-03-25T11:10:27;99387.59;;;24.28;36.83
11672;BME280;5892;43.412;24.612;2023-03-25T11:12:55;99376.00;;;23.99;34.28
11672;BME280;5892;43.412;24.612;2023-03-25T11:15:31;99316.78;;;23.50;35.35
11672;BME280;5892;43.412;24.612;2023-03-25T11:18:02;99385.28;;;23.92;34.61
11672;BME280;5892;43.412;24.612;2023-03-25T11:20:36;99375.47;;;24.07;34.94
11672;BME280;5892;43.412;24.612;2023-03-25T11:23:11;99362.56;;;24.14;34.29
11672;BME280;5892;43.412;24.612;2023-03-25T11:25:42;99379.03;;;23.85;34.75
11672;BME280;5892;43.412;24.612;2023-03-25T11:28:13;99365.19;;;23.44;35.63
11672;BME280;5892;43.412;24.612;2023-03-25T11:31:11;99363.84;;;23.55;35.92
11672;BME280;5892;43.412;24.612;2023-03-25T11:33:39;99374.31;;;23.78;34.78
11672;BME280;5892;43.412;24.612;2023-03-25T11:36:26;99352.25;;;23.84;34.53
11672;BME280;5892;43.412;24.612;2023-03-25T11:38:58;99352.41;;;23.73;35.30
11672;BME280;5892;43.412;24.612;2023-03-25T11:41:32;99370.16;;;23.63;34.54
11672;BME280;5892;43.412;24.612;2023-03-25T11:44:00;99344.31;;;23.21;35.81
11672;BME280;5892;43.412;24.612;2023-03-25T11:46:32;99356.50;;;23.35;36.00
11672;BME280;5892;43.412;24.612;2023-03-25T11:49:08;99353.00;;;23.61;35.61
11672;BME280;5892;43.412;24.612;2023-03-25T11:51:36;99348.44;;;23.97;35.42
11672;BME280;5892;43.412;24.612;2023-03-25T11:54:06;99343.06;;;23.83;35.56
11672;BME280;5892;43.412;24.612;2023-03-25T11:56:38;99339.63;;;23.76;35.48
11672;BME280;5892;43.412;24.612;2023-03-25T11:59:07;99338.38;;;23.77;35.41
11672;BME280;5892;43.412;24.612;2023-03-25T12:01:40;99328.75;;;23.81;35.56
11672;BME280;5892;43.412;24.612;2023-03-25T12:04:13;99291.22;;;23.52;35.81
11672;BME280;5892;43.412;24.612;2023-03-25T12:06:52;99322.66;;;23.59;35.29
11672;BME280;5892;43.412;24.612;2023-03-25T12:09:20;99298.88;;;23.75;34.84
11672;BME280;5892;43.412;24.612;2023-03-25T12:11:56;99296.16;;;23.68;34.98
11672;BME280;5892;43.412;24.612;2023-03-25T12:14:34;99313.91;;;23.57;34.68
11672;BME280;5892;43.412;24.612;2023-03-25T12:17:15;99315.00;;;23.63;34.54
11672;BME280;5892;43.412;24.612;2023-03-25T12:19:50;99319.72;;;23.70;33.78
11672;BME280;5892;43.412;24.612;2023-03-25T12:22:34;99284.03;;;23.51;34.03
11672;BME280;5892;43.412;24.612;2023-03-25T12:25:23;99300.13;;;23.40;34.07
11672;BME280;5892;43.412;24.612;2023-03-25T12:28:01;99302.59;;;23.07;34.27
11672;BME280;5892;43.412;24.612;2023-03-25T12:30:41;99309.09;;;23.28;35.18
11672;BME280;5892;43.412;24.612;2023-03-25T12:33:23;99276.41;;;23.24;33.96
11672;BME280;5892;43.412;24.612;2023-03-25T12:36:16;99288.34;;;23.29;33.28
11672;BME280;5892;43.412;24.612;2023-03-25T12:38:53;99294.66;;;23.33;32.72
11672;BME280;5892;43.412;24.612;2023-03-25T12:41:30;99298.50;;;23.46;33.31
11672;BME280;5892;43.412;24.612;2023-03-25T12:44:05;99290.22;;;23.35;33.28
11672;BME280;5892;43.412;24.612;2023-03-25T12:46:45;99282.00;;;23.55;32.45
11672;BME280;5892;43.412;24.612;2023-03-25T12:49:28;99242.34;;;23.33;32.83
11672;BME280;5892;43.412;24.612;2023-03-25T12:52:03;99275.00;;;23.09;33.65
11672;BME280;5892;43.412;24.612;2023-03-25T12:54:52;99278.91;;;23.46;33.28
11672;BME280;5892;43.412;24.612;2023-03-25T12:57:35;99264.13;;;23.18;33.25
11672;BME280;5892;43.412;24.612;2023-03-25T13:00:13;99271.53;;;23.02;33.59
11672;BME280;5892;43.412;24.612;2023-03-25T13:06:06;99274.41;;;22.61;34.38
11672;BME280;5892;43.412;24.612;2023-03-25T13:08:38;99254.94;;;22.54;34.46
11672;BME280;5892;43.412;24.612;2023-03-25T13:11:13;99282.72;;;22.64;34.25
11672;BME280;5892;43.412;24.612;2023-03-25T13:13:43;99278.69;;;22.69;34.67
11672;BME280;5892;43.412;24.612;2023-03-25T13:16:15;99277.50;;;22.70;35.09
11672;BME280;5892;43.412;24.612;2023-03-25T13:18:47;99274.31;;;22.68;35.95
11672;BME280;5892;43.412;24.612;2023-03-25T13:21:19;99286.00;;;22.93;35.64
11672;BME280;5892;43.412;24.612;2023-03-25T13:23:51;99283.38;;;22.79;36.06
11672;BME280;5892;43.412;24.612;2023-03-25T13:26:22;99275.66;;;22.90;35.92
11672;BME280;5892;43.412;24.612;2023-03-25T13:28:53;99283.66;;;22.88;35.73
11672;BME280;5892;43.412;24.612;2023-03-25T13:31:26;99284.78;;;22.94;36.08
11672;BME280;5892;43.412;24.612;2023-03-25T13:34:02;99281.53;;;22.99;35.98
11672;BME280;5892;43.412;24.612;2023-03-25T13:36:36;99274.50;;;22.88;35.81
11672;BME280;5892;43.412;24.612;2023-03-25T13:39:12;99277.38;;;22.80;35.41